Airfield :
LOGIN :

Register | Disclaimer

   EN    FR    IT 

 










Legend :    VFR   Marginal VFR   IFR   Intensive IFR   Very Intensive IFR
Visi :
Ceiling :
>= 8 km
>= 3000ft
5 to 8 km
1000 to 3000 ft
1500m to 5 km
500 to 1000 ft
800 to 1500m
200 to 500 ft
< 800m
< 200 ft
Symbols :   Thunderstorms  Fog  Heavy snow  Heavy precipitations  Wind > 20 kt
SIGMETs :     Misc.  Thunderstorms  Icing  Turbulence  Mountain Waves  Volcanic Ashes







- Airport Elevation : 312 ft
- IATA code : SAW


LTFJ - Sabiha Gokcen

CURRENT METAR :
  • 192220Z 05008KT 0600 R06/0700U R24/0500U FG SCT007 03/03 Q1020 BECMG TL2320 1600 BCFG

EXPIRED METARs :
  • 192150Z 05008KT 0600 R06/0900D R24/0700D FG SCT006 03/03 Q1020 BECMG TL2220 1600 BCFG
  • 192120Z 05008KT 2300 0600NE R06/P1500U R24/0550U BCFG NSC 03/03 Q1021 NOSIG
  • 192050Z 05009KT 2400 0900NE R06/P1500U R24/0900D BCFG NSC 04/03 Q1021 BECMG TL2150 4400 BR RMK RWY24 04005KT
  • 192020Z 05008KT 6000 2400NE BCFG NSC 04/04 Q1021 TEMPO 2200 BCFG
  • 191950Z 05008KT CAVOK 05/04 Q1021 NOSIG

TAF AMD TAF LTFJ
Valid from the 19 at 21:00 until the 20 at 18:00 UTC


192113Z 1921/2018 03005KT 1600 BCFG SCT006
TEMPO 1921/1924 0600 FG
BECMG 2000/2003 4000 BR
BECMG 2003/2006 9999 NSW
BECMG 2009/2012 24010KT
No reported NOTAMs for that airfield.



MET'MAP, your aeronautical weather chart ! - Copyright ORBIFLY December 2007 - Disclaimer

ORBIFLY MET'MAP TEAM :

Programming & Development : Alexandra Zaïnal
Concept & Development : Baudouin d'Aumeries
Co-Development & Prog : Marc-Olivier Méhu
Technical & hardware support : Manuel Goepfert

Contact : metmap@orbifly.com




SOURCES & CREDITS :

   NOAA